createdAt,value
2019-02-06T00:02:26.502Z,102120.98
2019-02-06T00:05:43.342Z,102109.98
2019-02-06T00:08:50.651Z,102125.61
2019-02-06T00:12:14.215Z,102120.89
2019-02-06T00:15:31.239Z,102116.66
2019-02-06T00:18:47.764Z,102114.97
2019-02-06T00:21:54.987Z,102116.16
2019-02-06T00:25:02.192Z,102119.59
2019-02-06T00:28:10.705Z,102113.59
2019-02-06T00:31:17.845Z,102111.89
2019-02-06T00:34:25.293Z,102109.81
2019-02-06T00:37:32.554Z,102112.36
2019-02-06T00:40:49.277Z,102109.47
2019-02-06T00:43:54.772Z,102113.62
2019-02-06T00:47:02.083Z,102119.53
2019-02-06T00:50:10.735Z,102115.30
2019-02-06T00:53:18.139Z,102118.70
2019-02-06T00:56:24.765Z,102114.45
2019-02-06T00:59:31.963Z,102118.67
2019-02-06T01:02:39.255Z,102119.52
2019-02-06T01:05:46.452Z,102114.03
2019-02-06T01:08:53.693Z,102112.35
2019-02-06T01:12:00.990Z,102114.48
2019-02-06T01:15:18.274Z,102108.23
2019-02-06T01:18:34.967Z,102109.03
2019-02-06T01:21:42.164Z,102097.98
2019-02-06T01:24:58.933Z,102104.89
2019-02-06T01:28:06.132Z,102110.67
2019-02-06T01:31:21.315Z,102117.09
2019-02-06T01:34:28.585Z,102112.84
2019-02-06T01:37:35.968Z,102095.13
2019-02-06T01:40:52.497Z,102094.27
2019-02-06T01:43:59.479Z,102096.38
2019-02-06T01:47:06.684Z,102091.37
2019-02-06T01:50:15.151Z,102103.91
2019-02-06T01:53:32.526Z,102098.06
2019-02-06T01:56:49.204Z,102101.88
2019-02-06T01:59:56.363Z,102108.64
2019-02-06T02:03:03.759Z,102105.19
2019-02-06T02:06:26.366Z,102097.66
2019-02-06T02:09:43.156Z,102095.97
2019-02-06T02:12:59.879Z,102091.83
2019-02-06T02:16:07.146Z,102096.95
2019-02-06T02:19:14.561Z,102086.30
2019-02-06T02:22:31.384Z,102082.08
2019-02-06T02:25:38.750Z,102077.09
2019-02-06T02:28:55.408Z,102066.53
2019-02-06T02:32:12.201Z,102060.61
2019-02-06T02:35:19.478Z,102061.43
2019-02-06T02:38:36.069Z,102050.92
2019-02-06T02:41:43.247Z,102055.52
2019-02-06T02:44:50.477Z,102054.27
2019-02-06T02:48:07.348Z,102044.12
2019-02-06T02:51:24.042Z,102036.09
2019-02-06T02:54:31.244Z,102029.69
2019-02-06T02:57:48.161Z,102025.52
2019-02-06T03:01:22.734Z,102029.30
2019-02-06T03:04:37.449Z,102036.50
2019-02-06T03:07:45.043Z,102039.47
2019-02-06T03:11:01.576Z,102026.89
2019-02-06T03:14:18.363Z,102024.73
2019-02-06T03:17:35.116Z,102024.72
2019-02-06T03:20:42.582Z,102017.58
2019-02-06T03:23:59.053Z,102003.64
2019-02-06T03:27:06.455Z,102006.59
2019-02-06T03:30:22.981Z,101995.64
2019-02-06T03:33:30.418Z,101995.61
2019-02-06T03:36:47.010Z,101976.15
2019-02-06T03:40:03.794Z,101978.25
2019-02-06T03:43:20.736Z,101971.53
2019-02-06T03:46:37.466Z,101965.98
2019-02-06T03:49:43.060Z,101971.53
2019-02-06T03:52:59.651Z,101963.88
2019-02-06T03:56:06.929Z,101958.84
2019-02-06T03:59:14.161Z,101960.53
2019-02-06T04:02:30.713Z,101940.62
2019-02-06T04:05:36.867Z,101943.58
2019-02-06T04:08:44.173Z,101939.36
2019-02-06T04:11:51.294Z,101940.62
2019-02-06T04:15:08.321Z,101927.52
2019-02-06T04:18:15.534Z,101924.09
2019-02-06T04:21:22.841Z,101930.05
2019-02-06T04:24:30.129Z,101919.45
2019-02-06T04:27:37.425Z,101918.13
2019-02-06T04:30:44.556Z,101919.83
2019-02-06T04:33:51.677Z,101906.72
2019-02-06T04:37:06.788Z,101896.99
2019-02-06T04:40:14.746Z,101881.36
2019-02-06T04:43:22.166Z,101880.94
2019-02-06T04:46:38.685Z,101867.41
2019-02-06T04:49:45.956Z,101869.06
2019-02-06T04:53:02.628Z,101858.95
2019-02-06T04:56:19.471Z,101866.59
2019-02-06T04:59:26.627Z,101875.05
2019-02-06T05:02:33.847Z,101873.74
2019-02-06T05:05:41.174Z,101865.32
2019-02-06T05:08:57.886Z,101861.06
2019-02-06T05:12:14.527Z,101844.17
2019-02-06T05:15:21.925Z,101842.47
2019-02-06T05:18:38.485Z,101815.83
2019-02-06T05:21:45.766Z,101822.59
2019-02-06T05:25:02.590Z,101807.80
2019-02-06T05:28:19.352Z,101809.88
2019-02-06T05:31:26.556Z,101815.41
2019-02-06T05:34:33.729Z,101819.21
2019-02-06T05:37:40.930Z,101813.72
2019-02-06T05:40:48.105Z,101817.07
2019-02-06T05:43:55.416Z,101821.33
2019-02-06T05:47:03.067Z,101821.72
2019-02-06T05:50:11.154Z,101811.19
2019-02-06T05:53:28.386Z,101806.92
2019-02-06T05:56:44.821Z,101806.53
2019-02-06T05:59:52.020Z,101800.16
2019-02-06T06:03:08.978Z,101794.67
2019-02-06T06:06:25.723Z,101798.08
2019-02-06T06:09:42.326Z,101795.97
2019-02-06T06:12:49.653Z,101801.03
2019-02-06T06:16:06.365Z,101794.72
2019-02-06T06:19:13.650Z,101803.59
2019-02-06T06:22:30.350Z,101807.83
2019-02-06T06:25:37.555Z,101813.32
2019-02-06T06:28:54.254Z,101802.33
2019-02-06T06:32:01.556Z,101798.07
2019-02-06T06:35:18.278Z,101793.02
2019-02-06T06:38:34.956Z,101796.81
2019-02-06T06:41:42.477Z,101789.20
2019-02-06T06:44:59.036Z,101786.69
2019-02-06T06:48:15.699Z,101773.55
2019-02-06T06:51:22.832Z,101777.78
2019-02-06T06:54:29.954Z,101774.83
2019-02-06T06:57:37.257Z,101767.64
2019-02-06T07:00:44.491Z,101765.95
2019-02-06T07:03:51.708Z,101772.30
2019-02-06T07:06:58.865Z,101767.66
2019-02-06T07:10:06.974Z,101752.83
2019-02-06T07:13:14.155Z,101745.66
2019-02-06T07:16:21.477Z,101752.84
2019-02-06T07:19:28.815Z,101754.95
2019-02-06T07:22:36.128Z,101749.47
2019-02-06T07:25:43.460Z,101748.63
2019-02-06T07:28:50.705Z,101746.52
2019-02-06T07:31:57.967Z,101749.89
2019-02-06T07:35:05.744Z,101742.72
2019-02-06T07:38:24.434Z,101738.50
2019-02-06T07:41:30.950Z,101738.48
2019-02-06T07:44:38.677Z,101731.71
2019-02-06T07:47:46.116Z,101714.78
2019-02-06T07:50:53.378Z,101706.78
2019-02-06T07:54:00.611Z,101701.70
2019-02-06T07:57:07.839Z,101705.51
2019-02-06T08:00:15.117Z,101704.23
2019-02-06T08:03:22.410Z,101708.45
2019-02-06T08:06:29.545Z,101701.66
2019-02-06T08:09:36.748Z,101691.96
2019-02-06T08:12:44.248Z,101680.93
2019-02-06T08:15:51.458Z,101691.09
2019-02-06T08:18:58.882Z,101687.73
2019-02-06T08:22:06.079Z,101686.03
2019-02-06T08:25:23.092Z,101680.50
2019-02-06T08:28:39.722Z,101677.16
2019-02-06T08:31:46.854Z,101675.44
2019-02-06T08:34:54.059Z,101662.30
2019-02-06T08:38:01.434Z,101658.48
2019-02-06T08:41:17.976Z,101663.58
2019-02-06T08:44:25.277Z,101663.18
2019-02-06T08:47:32.503Z,101654.28
2019-02-06T08:50:49.216Z,101657.23
2019-02-06T08:54:06.220Z,101646.63
2019-02-06T08:57:22.950Z,101652.98
2019-02-06T09:00:40.022Z,101653.38
2019-02-06T09:03:47.657Z,101657.25
2019-02-06T09:06:54.930Z,101644.95
2019-02-06T09:10:02.205Z,101641.09
2019-02-06T09:13:09.751Z,101638.56
2019-02-06T09:16:17.169Z,101635.98
2019-02-06T09:19:24.364Z,101631.38
2019-02-06T09:22:31.506Z,101621.64
2019-02-06T09:25:48.941Z,101631.75
2019-02-06T09:29:05.838Z,101625.37
2019-02-06T09:32:22.401Z,101618.62
2019-02-06T09:35:29.748Z,101627.04
2019-02-06T09:38:46.590Z,101611.38
2019-02-06T09:41:53.965Z,101610.11
2019-02-06T09:45:11.704Z,101609.63
2019-02-06T09:48:18.910Z,101612.25
2019-02-06T09:51:26.176Z,101614.28
2019-02-06T09:54:33.370Z,101606.70
2019-02-06T09:57:40.652Z,101610.09
2019-02-06T10:00:47.926Z,101611.77
2019-02-06T10:03:55.210Z,101611.33
2019-02-06T10:07:02.410Z,101606.58
2019-02-06T10:10:18.693Z,101612.05
2019-02-06T10:13:25.978Z,101601.92
2019-02-06T10:16:33.110Z,101592.13
2019-02-06T10:19:42.435Z,101586.92
2019-02-06T10:22:49.250Z,101597.43
2019-02-06T10:25:56.449Z,101597.45
2019-02-06T10:29:04.411Z,101587.23
2019-02-06T10:32:20.920Z,101589.63
2019-02-06T10:35:28.591Z,101583.30
2019-02-06T10:38:44.941Z,101575.30
2019-02-06T10:42:01.741Z,101567.63
2019-02-06T10:45:21.043Z,101553.13
2019-02-06T10:48:37.132Z,101560.30
2019-02-06T10:51:44.268Z,101565.36
2019-02-06T10:54:51.539Z,101555.20
2019-02-06T10:57:58.768Z,101560.65
2019-02-06T11:01:06.203Z,101558.11
2019-02-06T11:04:32.728Z,101555.95
2019-02-06T11:07:39.943Z,101550.48
2019-02-06T11:10:47.245Z,101551.68
2019-02-06T11:14:04.101Z,101554.22
2019-02-06T11:17:20.712Z,101564.42
2019-02-06T11:20:28.569Z,101563.16
2019-02-06T11:23:35.773Z,101567.84
2019-02-06T11:26:42.970Z,101553.70
2019-02-06T11:29:48.669Z,101553.42
2019-02-06T11:32:55.825Z,101552.52
2019-02-06T11:36:03.069Z,101558.02
2019-02-06T11:39:18.389Z,101555.39
2019-02-06T11:42:25.587Z,101557.11
2019-02-06T11:45:33.082Z,101547.14
2019-02-06T11:48:43.274Z,101547.31
2019-02-06T11:51:49.404Z,101542.55
2019-02-06T11:54:56.621Z,101546.00
2019-02-06T11:58:04.116Z,101545.23
2019-02-06T12:01:24.542Z,101534.20
2019-02-06T12:04:32.075Z,101542.38
2019-02-06T12:07:39.533Z,101538.44
2019-02-06T12:10:47.278Z,101540.23
2019-02-06T12:14:03.936Z,101532.27
2019-02-06T12:17:21.116Z,101522.97
2019-02-06T12:20:37.567Z,101521.87
2019-02-06T12:23:54.212Z,101521.46
2019-02-06T12:27:01.477Z,101520.64
2019-02-06T12:30:22.106Z,101522.73
2019-02-06T12:33:29.464Z,101520.55
2019-02-06T12:36:36.667Z,101509.98
2019-02-06T12:39:43.863Z,101508.27
2019-02-06T12:42:51.053Z,101504.55
2019-02-06T12:45:58.258Z,101500.73
2019-02-06T12:49:05.703Z,101501.06
2019-02-06T12:52:12.921Z,101500.61
2019-02-06T12:55:22.841Z,101495.48
2019-02-06T12:58:30.111Z,101489.05
2019-02-06T13:01:37.321Z,101487.47
2019-02-06T13:04:44.532Z,101488.69
2019-02-06T13:07:51.810Z,101486.09
2019-02-06T13:10:58.941Z,101486.18
2019-02-06T13:14:06.242Z,101487.31
2019-02-06T13:17:13.510Z,101488.79
2019-02-06T13:20:23.046Z,101488.29
2019-02-06T13:23:30.177Z,101487.04
2019-02-06T13:26:46.927Z,101477.59
2019-02-06T13:29:54.066Z,101476.43
2019-02-06T13:33:01.263Z,101473.93
2019-02-06T13:36:10.130Z,101462.57
2019-02-06T13:39:17.331Z,101464.27
2019-02-06T13:42:24.541Z,101458.55
2019-02-06T13:45:34.423Z,101453.12
2019-02-06T13:48:41.560Z,101458.51
2019-02-06T13:51:48.684Z,101462.37
2019-02-06T13:54:55.788Z,101458.45
2019-02-06T13:58:03.054Z,101459.83
2019-02-06T14:01:10.252Z,101458.14
2019-02-06T14:04:17.448Z,101462.01
2019-02-06T14:07:24.472Z,101454.44
2019-02-06T14:10:31.590Z,101466.34
2019-02-06T14:13:38.890Z,101459.52
2019-02-06T14:16:46.189Z,101457.75
2019-02-06T14:19:53.466Z,101458.32
2019-02-06T14:23:12.998Z,101451.39
2019-02-06T14:26:25.464Z,101448.83
2019-02-06T14:30:06.195Z,101447.09
2019-02-06T14:33:58.012Z,101443.76
2019-02-06T14:37:20.938Z,101436.11
2019-02-06T14:40:49.619Z,101436.41
2019-02-06T14:44:39.378Z,101436.41
2019-02-06T14:48:33.461Z,101430.51
2019-02-06T14:52:18.590Z,101430.61
2019-02-06T14:56:03.866Z,101420.73
2019-02-06T14:59:52.608Z,101423.69
2019-02-06T15:03:50.025Z,101424.03
2019-02-06T15:07:13.372Z,101426.16
2019-02-06T15:11:05.498Z,101416.01
2019-02-06T15:14:41.857Z,101423.16
2019-02-06T15:18:45.601Z,101416.77
2019-02-06T15:22:39.765Z,101412.55
2019-02-06T15:26:18.483Z,101412.55
2019-02-06T15:29:42.525Z,101402.61
2019-02-06T15:33:24.608Z,101405.44
2019-02-06T15:37:17.545Z,101408.58
2019-02-06T15:40:56.497Z,101403.08
2019-02-06T15:44:28.442Z,101410.51
2019-02-06T15:48:06.967Z,101403.64
2019-02-06T15:52:05.099Z,101405.70
2019-02-06T15:55:39.804Z,101401.55
2019-02-06T15:59:18.344Z,101410.84
2019-02-06T16:02:37.123Z,101408.32
2019-02-06T16:06:17.859Z,101411.27
2019-02-06T16:09:48.475Z,101410.48
2019-02-06T16:13:22.003Z,101406.30
2019-02-06T16:17:04.943Z,101407.13
2019-02-06T16:21:03.021Z,101401.47
2019-02-06T16:24:53.194Z,101399.26
2019-02-06T16:28:42.779Z,101398.98
2019-02-06T16:32:03.873Z,101400.63
2019-02-06T16:35:46.515Z,101402.59
2019-02-06T16:39:14.705Z,101399.26
2019-02-06T16:43:18.866Z,101398.92
2019-02-06T16:47:09.698Z,101400.27
2019-02-06T16:50:55.536Z,101392.48
2019-02-06T16:54:29.775Z,101391.64
2019-02-06T16:58:26.524Z,101392.52
2019-02-06T17:02:19.651Z,101393.69
2019-02-06T17:06:26.092Z,101385.69
2019-02-06T17:10:03.709Z,101391.75
2019-02-06T17:14:04.091Z,101390.27
2019-02-06T17:17:42.165Z,101389.42
2019-02-06T17:21:21.378Z,101392.56
2019-02-06T17:24:59.863Z,101385.66
2019-02-06T17:28:42.383Z,101380.14
2019-02-06T17:32:38.614Z,101379.27
2019-02-06T17:36:03.233Z,101387.61
2019-02-06T17:39:43.585Z,101385.91
2019-02-06T17:43:22.623Z,101378.94
2019-02-06T17:47:08.724Z,101384.03
2019-02-06T17:50:37.945Z,101380.11
2019-02-06T17:54:23.225Z,101384.88
2019-02-06T17:57:30.538Z,101382.79
2019-02-06T18:01:12.120Z,101381.89
2019-02-06T18:04:25.339Z,101384.05
2019-02-06T18:07:33.152Z,101384.55
2019-02-06T18:10:40.462Z,101364.55
2019-02-06T18:13:47.034Z,101369.48
2019-02-06T18:17:03.997Z,101355.95
2019-02-06T18:20:14.242Z,101369.57
2019-02-06T18:23:30.661Z,101366.08
2019-02-06T18:26:42.457Z,101361.02
2019-02-06T18:29:49.735Z,101358.11
2019-02-06T18:33:07.026Z,101357.58
2019-02-06T18:36:23.789Z,101354.78
2019-02-06T18:39:40.499Z,101357.27
2019-02-06T18:42:47.783Z,101354.75
2019-02-06T18:46:04.913Z,101352.08
2019-02-06T18:49:12.870Z,101348.25
2019-02-06T18:52:20.845Z,101342.81
2019-02-06T18:55:37.343Z,101337.66
2019-02-06T18:58:53.945Z,101344.76
2019-02-06T19:02:10.732Z,101347.84
2019-02-06T19:05:18.901Z,101350.42
2019-02-06T19:08:26.162Z,101342.75
2019-02-06T19:11:33.275Z,101344.48
2019-02-06T19:14:40.611Z,101351.31
2019-02-06T19:17:46.921Z,101349.53
2019-02-06T19:21:03.411Z,101339.17
2019-02-06T19:24:11.271Z,101334.71
2019-02-06T19:27:18.602Z,101331.81
2019-02-06T19:30:30.748Z,101324.67
2019-02-06T19:33:37.878Z,101330.03
2019-02-06T19:36:45.112Z,101328.31
2019-02-06T19:39:52.472Z,101329.97
2019-02-06T19:43:02.460Z,101328.34
2019-02-06T19:46:08.681Z,101322.19
2019-02-06T19:49:14.885Z,101321.03
2019-02-06T19:52:31.489Z,101320.94
2019-02-06T19:55:48.221Z,101318.91
2019-02-06T19:59:05.385Z,101317.30
2019-02-06T20:02:21.720Z,101317.52
2019-02-06T20:05:29.025Z,101313.70
2019-02-06T20:08:47.609Z,101308.17
2019-02-06T20:12:04.492Z,101309.89
2019-02-06T20:15:21.284Z,101302.27
2019-02-06T20:18:28.605Z,101304.97
2019-02-06T20:21:45.104Z,101303.17
2019-02-06T20:24:52.334Z,101306.12
2019-02-06T20:27:59.458Z,101300.19
2019-02-06T20:31:06.808Z,101302.59
2019-02-06T20:34:14.082Z,101301.81
2019-02-06T20:37:21.696Z,101292.23
2019-02-06T20:40:38.164Z,101293.77
2019-02-06T20:43:54.718Z,101287.05
2019-02-06T20:47:11.525Z,101289.80
2019-02-06T20:50:29.871Z,101295.78
2019-02-06T20:53:46.660Z,101283.83
2019-02-06T20:56:53.823Z,101286.12
2019-02-06T21:00:00.541Z,101285.00
2019-02-06T21:03:07.825Z,101289.48
2019-02-06T21:06:15.020Z,101279.82
2019-02-06T21:09:22.216Z,101279.30
2019-02-06T21:12:29.344Z,101275.53
2019-02-06T21:15:36.853Z,101265.29
2019-02-06T21:18:44.327Z,101263.14
2019-02-06T21:21:51.586Z,101261.97
2019-02-06T21:25:09.735Z,101246.13
2019-02-06T21:28:26.594Z,101238.26
2019-02-06T21:31:43.795Z,101234.23
2019-02-06T21:35:00.156Z,101234.76
2019-02-06T21:38:07.450Z,101223.67
2019-02-06T21:41:24.113Z,101214.59
2019-02-06T21:44:40.821Z,101196.19
2019-02-06T21:47:57.745Z,101201.22
2019-02-06T21:51:14.404Z,101201.66
2019-02-06T21:54:31.169Z,101186.50
2019-02-06T21:57:48.022Z,101188.52
2019-02-06T22:00:55.143Z,101189.36
2019-02-06T22:04:02.271Z,101182.25
2019-02-06T22:07:10.749Z,101181.31
2019-02-06T22:10:18.152Z,101170.45
2019-02-06T22:13:25.377Z,101175.18
2019-02-06T22:16:42.301Z,101161.07
2019-02-06T22:19:48.388Z,101170.62
2019-02-06T22:23:04.739Z,101162.58
2019-02-06T22:26:21.466Z,101161.17
2019-02-06T22:29:38.202Z,101164.80
2019-02-06T22:32:45.498Z,101165.63
2019-02-06T22:36:02.175Z,101165.80
2019-02-06T22:39:11.775Z,101161.50
2019-02-06T22:42:18.910Z,101158.36
2019-02-06T22:45:27.198Z,101147.60
2019-02-06T22:48:43.774Z,101147.67
2019-02-06T22:51:50.912Z,101149.22
2019-02-06T22:54:58.184Z,101152.53
2019-02-06T22:58:05.976Z,101154.51
2019-02-06T23:01:33.992Z,101165.36
2019-02-06T23:04:51.950Z,101168.27
2019-02-06T23:08:08.584Z,101164.38
2019-02-06T23:11:25.320Z,101151.36
2019-02-06T23:14:32.537Z,101156.89
2019-02-06T23:17:39.741Z,101159.73
2019-02-06T23:20:56.434Z,101151.17
2019-02-06T23:24:13.178Z,101149.31
2019-02-06T23:27:29.885Z,101137.84
2019-02-06T23:30:37.524Z,101135.73
2019-02-06T23:33:53.925Z,101130.03
2019-02-06T23:37:01.145Z,101129.23
2019-02-06T23:40:09.099Z,101116.67
2019-02-06T23:43:16.328Z,101117.70
2019-02-06T23:46:23.548Z,101113.11
2019-02-06T23:49:30.978Z,101109.62
2019-02-06T23:52:38.181Z,101094.81
2019-02-06T23:55:45.319Z,101090.44
2019-02-06T23:58:52.421Z,101082.80
